This is the latest recevied weather packets stored in our database for station/object OK0BPL-5. If no packets are shown the sender has not sent any weather packets the latest 10 day(s).
| Time | Temp. | Humidity | Pressure | Rain* | Wind** | Luminosity | Snow |
|---|---|---|---|---|---|---|---|
| 1787745932 | 27.22° C | 44% | 1040.5 hPa | 0 mm | - | 90 W/m² | - |
| 1787745032 | 26.67° C | 46% | 1040.6 hPa | 0 mm | - | 113 W/m² | - |
| 1787745032 | 26.67° C | 46% | 1040.6 hPa | 0 mm | - | 113 W/m² | - |
| 1787744132 | 28.33° C | 42% | 1040.4 hPa | 0 mm | - | 250 W/m² | - |
| 1787744132 | 28.33° C | 42% | 1040.4 hPa | 0 mm | - | 250 W/m² | - |
| 1787743232 | 26.11° C | 48% | 1040.6 hPa | 0 mm | - | 149 W/m² | - |
| 1787742332 | 27.78° C | 43% | 1040.4 hPa | 0 mm | - | 344 W/m² | - |
| 1787742332 | 27.78° C | 43% | 1040.4 hPa | 0 mm | - | 344 W/m² | - |
| 1787741432 | 28.33° C | 41% | 1040.6 hPa | 0 mm | - | 321 W/m² | - |
| 1787741432 | 28.33° C | 41% | 1040.6 hPa | 0 mm | - | 321 W/m² | - |
| 1787740532 | 27.22° C | 45% | 1040.8 hPa | 0 mm | - | 328 W/m² | - |
| 1787739632 | 26.11° C | 47% | 1040.9 hPa | 0 mm | - | 194 W/m² | - |
| 1787739632 | 26.11° C | 47% | 1040.9 hPa | 0 mm | - | 194 W/m² | - |
| 1787738732 | 26.11° C | 49% | 1041.3 hPa | 0 mm | - | 249 W/m² | - |
| 1787738732 | 26.11° C | 49% | 1041.3 hPa | 0 mm | - | 249 W/m² | - |
| 1787737832 | 25° C | 52% | 1041.6 hPa | 0 mm | - | 154 W/m² | - |
| 1787737832 | 25° C | 52% | 1041.6 hPa | 0 mm | - | 154 W/m² | - |
| 1787736932 | 23.89° C | 57% | 1041.9 hPa | 0 mm | - | 271 W/m² | - |
| 1787736932 | 23.89° C | 57% | 1041.9 hPa | 0 mm | - | 271 W/m² | - |
| 1787736032 | 24.44° C | 54% | 1041.7 hPa | 0 mm | - | 150 W/m² | - |
| 1787736032 | 24.44° C | 54% | 1041.7 hPa | 0 mm | - | 150 W/m² | - |
| 1787735132 | 23.89° C | 57% | 1041.6 hPa | 0 mm | - | 115 W/m² | - |
| 1787735132 | 23.89° C | 57% | 1041.6 hPa | 0 mm | - | 115 W/m² | - |
| 1787734232 | 23.89° C | 53% | 1041.4 hPa | 0 mm | - | 125 W/m² | - |
| 1787733332 | 25° C | 51% | 1041.5 hPa | 0 mm | - | 222 W/m² | - |
* Rain latest hour (hover to see other rain measurements)
** Current wind speed in m/s (hover to see current wind gust speed)